Home > Products > Valid Products > TAF

000
FTUS44 KBRO 212000 AAB
TAFHRL
TAF AMD
KHRL 212012Z 2120/2218 05009KT P6SM VCSH BKN035 OVC090
      TEMPO 2120/2122 3SM SHRA BKN020
     FM220000 04006KT P6SM VCSH SCT040 OVC100
     FM220600 03005KT P6SM SCT050 BKN100 PROB30 2209/2212 5SM -SHRA
      BKN030
     FM221200 04007KT P6SM VCSH SCT030 BKN150 PROB30 2212/2215 5SM
      -SHRA BKN030=



000
FTUS44 KBRO 212000 AAB
TAFMFE
TAF AMD
KMFE 212011Z 2120/2218 04008G17KT 5SM -RA BR SCT060 OVC080
      TEMPO 2120/2122 3SM RA BR BKN035
     FM220000 04006KT P6SM VCSH SCT040 OVC100
     FM220600 03005KT P6SM SCT050 BKN100 PROB30 2209/2212 5SM -SHRA
      BKN030
     FM221200 04007KT P6SM VCSH SCT030 BKN150 PROB30 2212/2215 5SM
      -SHRA BKN030=



000
FTUS44 KBRO 212000 AAA
TAFBRO
TAF AMD
KBRO 212009Z 2120/2218 05010KT P6SM VCSH BKN040 OVC090
     FM220000 04006KT P6SM VCSH SCT040 OVC100
     FM220600 03005KT P6SM SCT050 BKN100 PROB30 2209/2212 5SM -SHRA
      BKN030
     FM221200 04007KT P6SM VCSH SCT030 BKN150 PROB30 2212/2215 5SM
      -SHRA BKN030=



000
FTUS44 KBRO 211900 AAA
TAFHRL
TAF AMD
KHRL 211905Z 2119/2218 08009KT P6SM VCSH SCT035 SCT070 OVC090
      TEMPO 2119/2121 05020G24KT 4SM -SHRA BKN040
     FM220000 04006KT P6SM VCSH SCT040 OVC100
     FM220600 03005KT P6SM SCT050 BKN100 PROB30 2209/2212 5SM -SHRA
      BKN030
     FM221200 04007KT P6SM VCSH SCT030 BKN150 PROB30 2212/2215 5SM
      -SHRA BKN030=



000
FTUS44 KBRO 211800 AAA
TAFMFE
TAF AMD
KMFE 211815Z 2118/2218 02005KT P6SM VCSH SCT050 BKN070 BKN090
      TEMPO 2118/2120 2SM SHRA BKN040
     FM220000 04006KT P6SM VCSH SCT040 OVC100
     FM220600 03005KT P6SM SCT050 BKN100 PROB30 2209/2212 5SM -SHRA
      BKN030
     FM221200 04007KT P6SM VCSH SCT030 BKN150 PROB30 2212/2215 5SM
      -SHRA BKN030=



000
FTUS44 KBRO 211700
TAFHRL
TAF
KHRL 211739Z 2118/2218 08009KT P6SM VCSH SCT035 SCT070 OVC090
      TEMPO 2118/2120 4SM -SHRA BKN040
     FM220000 04006KT P6SM VCSH SCT040 OVC100
     FM220600 03005KT P6SM SCT050 BKN100 PROB30 2209/2212 5SM -SHRA
      BKN030
     FM221200 04007KT P6SM VCSH SCT030 BKN150 PROB30 2212/2215 5SM
      -SHRA BKN030=



000
FTUS44 KBRO 211700
TAFBRO
TAF
KBRO 211739Z 2118/2218 08012G17KT P6SM VCSH SCT035 SCT050 BKN070
      TEMPO 2118/2120 4SM -SHRA BKN040
     FM220000 04006KT P6SM VCSH SCT040 OVC100
     FM220600 03005KT P6SM SCT050 BKN100 PROB30 2209/2212 5SM -SHRA
      BKN030
     FM221200 04007KT P6SM VCSH SCT030 BKN150 PROB30 2212/2215 5SM
      -SHRA BKN030=



000
FTUS44 KBRO 211700
TAFMFE
TAF
KMFE 211739Z 2118/2218 02005KT P6SM VCSH SCT050 BKN070 BKN090
      TEMPO 2118/2120 4SM -SHRA BKN040
     FM220000 04006KT P6SM VCSH SCT040 OVC100
     FM220600 03005KT P6SM SCT050 BKN100 PROB30 2209/2212 5SM -SHRA
      BKN030
     FM221200 04007KT P6SM VCSH SCT030 BKN150 PROB30 2212/2215 5SM
      -SHRA BKN030=



000
FTUS44 KBRO 211600 AAA
TAFBRO
TAF AMD
KBRO 211602Z 2116/2212 09010KT P6SM -RA VCSH BKN028 BKN045 BKN060
      TEMPO 2116/2118 3SM SHRA
     FM212100 05010KT P6SM SCT040 SCT120
     FM220200 06005KT P6SM FEW050 BKN120=



000
FTUS44 KBRO 211600 AAA
TAFBRO
TAF AMD
KBRO 211602Z 2116/2212 09010KT P6SM -RA VCSH BKN028 BKN045 BKN060
      TEMPO 2116/2118 3SM SHRA
     FM212100 05010KT P6SM SCT040 SCT120
     FM220200 06005KT P6SM FEW050 BKN120=



000
FTUS44 KBRO 211500 AAC
TAFHRL
TAF AMD
KHRL 211554Z 2116/2212 03006KT P6SM VCSH SCT050
      TEMPO 2116/2117 06010G20KT 1SM +RA BR BKN050
     FM211700 07012KT P6SM VCSH SCT030 BKN050
     FM212200 06010KT P6SM SCT050 SCT120
     FM220200 05005KT P6SM FEW050 BKN120=



000
FTUS44 KBRO 211500 AAB
TAFHRL
TAF AMD
KHRL 211554Z 2116/2212 05006KT P6SM VCSH SCT050
      TEMPO 2116/2117 06010G20KT 1SM +RA BR BKN050
     FM211700 07012KT P6SM VCSH SCT030 BKN050
     FM212200 06010KT P6SM SCT050 SCT120
     FM220200 05005KT P6SM FEW050 BKN120=



000
FTUS44 KBRO 211500 AAC
TAFHRL
TAF AMD
KHRL 211554Z 2116/2212 03006KT P6SM VCSH SCT050
      TEMPO 2116/2117 06010G20KT 1SM +RA BR BKN050
     FM211700 07012KT P6SM VCSH SCT030 BKN050
     FM212200 06010KT P6SM SCT050 SCT120
     FM220200 05005KT P6SM FEW050 BKN120=



000
FTUS44 KBRO 211500 AAB
TAFHRL
TAF AMD
KHRL 211554Z 2116/2212 05006KT P6SM VCSH SCT050
      TEMPO 2116/2117 06010G20KT 1SM +RA BR BKN050
     FM211700 07012KT P6SM VCSH SCT030 BKN050
     FM212200 06010KT P6SM SCT050 SCT120
     FM220200 05005KT P6SM FEW050 BKN120=



000
FTUS44 KBRO 211500 AAA
TAFHRL
TAF AMD
KHRL 211553Z 2116/2212 03006KT P6SM VCSH SCT050
      TEMPO 2116/2117 1SM +RA BR BKN050
     FM211700 07012KT P6SM VCSH SCT030 BKN050
     FM212200 06010KT P6SM SCT050 SCT120
     FM220200 05005KT P6SM FEW050 BKN120=



000
FTUS44 KBRO 211500 AAA
TAFHRL
TAF AMD
KHRL 211553Z 2116/2212 03006KT P6SM VCSH SCT050
      TEMPO 2116/2117 1SM +RA BR BKN050
     FM211700 07012KT P6SM VCSH SCT030 BKN050
     FM212200 06010KT P6SM SCT050 SCT120
     FM220200 05005KT P6SM FEW050 BKN120=



000
FTUS44 KBRO 211500 AAA
TAFMFE
TAF AMD
KMFE 211511Z 2115/2212 02008KT P6SM VCSH FEW028
      TEMPO 2115/2119 -SHRA BKN030
     FM211900 07012KT P6SM VCSH SCT040 BKN060
     FM220200 05005KT P6SM FEW050 BKN120=



000
FTUS44 KBRO 211100
TAFHRL
TAF
KHRL 211130Z 2112/2212 03006KT P6SM VCSH FEW030
      TEMPO 2112/2116 -SHRA SCT025
     FM211700 07012KT P6SM VCSH SCT030 BKN050
     FM212200 06010KT P6SM SCT050 SCT120
     FM220200 05005KT P6SM FEW050 BKN120=



000
FTUS44 KBRO 211100
TAFBRO
TAF
KBRO 211130Z 2112/2212 02006KT P6SM VCSH SCT030
      TEMPO 2112/2116 -SHRA SCT025
     FM211700 07012KT P6SM VCSH SCT030 BKN050
     FM212100 05010KT P6SM SCT040 SCT120
     FM220200 06005KT P6SM FEW050 BKN120=



000
FTUS44 KBRO 211100
TAFMFE
TAF
KMFE 211130Z 2112/2212 03006KT 6SM BR FEW040
     FM211500 04010KT P6SM VCSH BKN030
      TEMPO 2115/2119 -SHRA SCT030
     FM211900 07012KT P6SM VCSH SCT040 BKN060
     FM220200 05005KT P6SM FEW050 BKN120=



000
FTUS44 KBRO 211100
TAFMFE
TAF
KMFE 211130Z 2112/2212 03006KT 6SM BR FEW040
     FM211500 04010KT P6SM VCSH BKN030
      TEMPO 2115/2119 -SHRA SCT030
     FM211900 07012KT P6SM VCSH SCT040 BKN060
     FM220200 05005KT P6SM FEW050 BKN120=



000
FTUS44 KBRO 211100
TAFBRO
TAF
KBRO 211130Z 2112/2212 02006KT P6SM VCSH SCT030
      TEMPO 2112/2116 -SHRA SCT025
     FM211700 07012KT P6SM VCSH SCT030 BKN050
     FM212100 05010KT P6SM SCT040 SCT120
     FM220200 06005KT P6SM FEW050 BKN120=



000
FTUS44 KBRO 211100
TAFHRL
TAF
KHRL 211130Z 2112/2212 03006KT P6SM VCSH FEW030
      TEMPO 2112/2116 -SHRA SCT025
     FM211700 07012KT P6SM VCSH SCT030 BKN050
     FM212200 06010KT P6SM SCT050 SCT120
     FM220200 05005KT P6SM FEW050 BKN120=



000
FTUS44 KBRO 211000 AAA
TAFMFE
TAF AMD
KMFE 211024Z 2110/2206 03006KT 5SM BR FEW040
     FM211100 04006KT P6SM BKN030
     FM211700 07012KT P6SM VCSH SCT040 BKN060
     FM220200 07006KT P6SM FEW050 BKN120=



000
FTUS44 KBRO 211000 AAA
TAFMFE
TAF AMD
KMFE 211024Z 2110/2206 03006KT 5SM BR FEW040
     FM211100 04006KT P6SM BKN030
     FM211700 07012KT P6SM VCSH SCT040 BKN060
     FM220200 07006KT P6SM FEW050 BKN120=



000
FTUS44 KBRO 210500
TAFHRL
TAF
KHRL 210527Z 2106/2206 03006KT P6SM FEW030
     FM211700 07012KT P6SM VCSH SCT030 BKN050
     FM212100 05010KT P6SM SCT050 SCT120
     FM220100 05006KT P6SM FEW050 BKN120=



000
FTUS44 KBRO 210500
TAFMFE
TAF
KMFE 210527Z 2106/2206 03006KT P6SM FEW040
     FM211100 04006KT P6SM BKN030
     FM211700 07012KT P6SM VCSH SCT040 BKN060
     FM220200 07006KT P6SM FEW050 BKN120=



000
FTUS44 KBRO 210500
TAFBRO
TAF
KBRO 210527Z 2106/2206 07006KT P6SM SCT030
     FM211700 07012KT P6SM VCSH SCT030 BKN050
     FM212100 05010KT P6SM SCT040 SCT120
     FM220100 06006KT P6SM FEW050 BKN120=



000
FTUS44 KBRO 202300
TAFBRO
TAF
KBRO 202330Z 2100/2124 06008KT P6SM FEW040 SCT150
     FM210200 07006KT P6SM SCT030
     FM211700 07012KT P6SM VCSH SCT030 BKN050
     FM212100 05010KT P6SM SCT050 SCT120=



000
FTUS44 KBRO 202300
TAFHRL
TAF
KHRL 202330Z 2100/2124 06009KT P6SM SCT040 BKN080
     FM210200 07006KT P6SM SCT030
     FM211700 07012KT P6SM VCSH SCT030 BKN050
     FM212100 05010KT P6SM SCT050 SCT120=



000
FTUS44 KBRO 202300
TAFMFE
TAF
KMFE 202330Z 2100/2124 03010KT P6SM OVC070
     FM210200 05006KT P6SM FEW050
     FM211100 04006KT P6SM BKN040
     FM211700 07012KT P6SM VCSH SCT040 BKN060=



000
FTUS44 KBRO 202200 AAB
TAFMFE
TAF AMD
KMFE 202234Z 2023/2118 04010KT P6SM VCSH SCT040 BKN070
     FM210100 05006KT P6SM FEW030 SCT090=



000
FTUS44 KBRO 202100 AAA
TAFMFE
TAF AMD
KMFE 202142Z 2022/2118 07010KT P6SM VCSH SCT040 BKN070
      TEMPO 2022/2023 06015G30KT 3SM +SHRA BKN040
     FM210100 05006KT P6SM SCT020=



000
FTUS44 KBRO 202100 AAA
TAFMFE
TAF AMD
KMFE 202142Z 2022/2118 07010KT P6SM VCSH SCT040 BKN070
      TEMPO 2022/2023 06015G30KT 3SM +SHRA BKN040
     FM210100 05006KT P6SM SCT020=



000
FTUS44 KBRO 201700
TAFMFE
TAF
KMFE 201729Z 2018/2118 07010KT P6SM VCSH SCT040
     FM210100 05006KT P6SM SCT020=



000
FTUS44 KBRO 201700
TAFHRL
TAF
KHRL 201729Z 2018/2118 07010KT P6SM VCSH SCT040
     FM210000 08006KT P6SM FEW025
     FM211600 07012KT P6SM SCT040=



000
FTUS44 KBRO 201700
TAFBRO
TAF
KBRO 201729Z 2018/2118 08010KT P6SM VCSH SCT035
     FM210000 08006KT P6SM FEW025
     FM211600 07012KT P6SM SCT040=



000
FTUS44 KBRO 201500 AAA
TAFBRO
TAF AMD
KBRO 201509Z 2015/2112 06008KT P6SM SCT035
     FM201700 07010KT P6SM VCTS SCT030CB BKN050
      TEMPO 2017/2020 -TSRA BKN030CB
     FM210000 10006KT P6SM VCSH SCT050 BKN100
     FM210300 VRB05KT P6SM SCT040 BKN050=



000
FTUS44 KBRO 201100 CCA
TAFMFE
TAF COR
KMFE 201132Z 2012/2112 VRB03KT P6SM SCT030 BKN050 OVC100
     FM201800 10010KT P6SM VCSH SCT025 BKN050
      TEMPO 2018/2022 -TSRA BKN030CB
     FM210000 10006KT P6SM VCSH SCT050 BKN100
     FM210300 VRB05KT P6SM SCT040 BKN050=



000
FTUS44 KBRO 201100 CCA
TAFHRL
TAF COR
KHRL 201131Z 2012/2112 VRB03KT P6SM SCT030 BKN050 OVC100
     FM201800 11010KT P6SM VCSH SCT025 BKN050
      TEMPO 2018/2022 -TSRA BKN030CB
     FM210000 10006KT P6SM VCSH SCT050 BKN100
     FM210300 VRB05KT P6SM SCT040 BKN050=



000
FTUS44 KBRO 201100 CCA
TAFBRO
TAF COR
KBRO 201129Z 2012/2112 VRB03KT P6SM VCSH SCT040 BKN050 OVC100
     FM201500 07010KT P6SM VCTS SCT030CB BKN050
      TEMPO 2015/2019 -TSRA BKN030CB
     FM210000 10006KT P6SM VCSH SCT050 BKN100
     FM210300 VRB05KT P6SM SCT040 BKN050=



000
FTUS44 KBRO 201100
TAFBRO
TAF
KBRO 201121Z 2012/2112 VRB03KT P6SM SCT040 BKN050 OVC100
     FM201500 07010KT P6SM VCSH SCT030 BKN050
     FM210000 10006KT P6SM VCSH SCT050 BKN100
     FM210300 VRB05KT P6SM SCT040 BKN050=



000
FTUS44 KBRO 201100
TAFHRL
TAF
KHRL 201121Z 2012/2112 VRB03KT P6SM SCT030 BKN050 OVC100
     FM201800 11010KT P6SM VCSH SCT025 BKN050
     FM210000 10006KT P6SM VCSH SCT050 BKN100
     FM210300 VRB05KT P6SM SCT040 BKN050=



000
FTUS44 KBRO 201100
TAFMFE
TAF
KMFE 201121Z 2012/2112 VRB03KT P6SM SCT030 BKN050 OVC100
     FM201800 10010KT P6SM VCSH SCT025 BKN050
     FM210000 10006KT P6SM VCSH SCT050 BKN100
     FM210300 VRB05KT P6SM SCT040 BKN050=



000
FTUS44 KBRO 200500
TAFBRO
TAF
KBRO 200521Z 2006/2106 07005KT P6SM SCT050 BKN100
     FM201000 VRB03KT P6SM SCT030 BKN050 OVC100
     FM201500 10010KT P6SM VCSH SCT030 BKN050
     FM210000 10006KT P6SM VCSH SCT050 BKN100=



000
FTUS44 KBRO 200500
TAFMFE
TAF
KMFE 200521Z 2006/2106 09006KT P6SM SCT050 BKN100
     FM200900 VRB03KT P6SM SCT030 BKN050 OVC100
     FM201800 10010KT P6SM VCSH SCT025 BKN050
     FM210000 10006KT P6SM VCSH SCT050 BKN100=



000
FTUS44 KBRO 200500
TAFHRL
TAF
KHRL 200521Z 2006/2106 09006KT P6SM SCT050 BKN100
     FM201000 VRB03KT P6SM SCT030 BKN050 OVC100
     FM201800 11010KT P6SM VCSH SCT025 BKN050
     FM210000 10006KT P6SM VCSH SCT050 BKN100=



000
FTUS44 KBRO 192300
TAFBRO
TAF
KBRO 192320Z 2000/2024 07005KT P6SM SCT050 BKN100
     FM200600 VRB03KT P6SM SCT030 BKN050 OVC100 PROB30 2012/2018 -DZ
      BKN030 OVC050
     FM201800 10010KT P6SM VCSH SCT030 BKN050 PROB30 2018/2024 -SHRA
      BKN030 OVC050=



000
FTUS44 KBRO 192300
TAFHRL
TAF
KHRL 192320Z 2000/2024 09009KT P6SM SCT050 BKN100
     FM200600 VRB03KT P6SM SCT030 BKN050 OVC100 PROB30 2012/2018 -DZ
      BKN030 OVC050
     FM201800 11010KT P6SM VCSH SCT025 BKN050 PROB30 2018/2024 -SHRA
      BKN025 OVC050=



000
FTUS44 KBRO 192300
TAFBRO
TAF
KBRO 192320Z 2000/2024 07005KT P6SM SCT050 BKN100
     FM200600 VRB03KT P6SM SCT030 BKN050 OVC100 PROB30 2012/2018 -DZ
      BKN030 OVC050
     FM201800 10010KT P6SM VCSH SCT030 BKN050 PROB30 2018/2024 -SHRA
      BKN030 OVC050=



000
FTUS44 KBRO 192300
TAFMFE
TAF
KMFE 192320Z 2000/2024 09009KT P6SM SCT050 BKN100
     FM200600 VRB03KT P6SM SCT030 BKN050 OVC100 PROB30 2012/2018 -DZ
      BKN030 OVC050
     FM201800 10010KT P6SM VCTS SCT025 BKN050CB PROB30 2018/2024
      -TSRA BKN025CB OVC050=



000
FTUS44 KBRO 192300
TAFHRL
TAF
KHRL 192320Z 2000/2024 09009KT P6SM SCT050 BKN100
     FM200600 VRB03KT P6SM SCT030 BKN050 OVC100 PROB30 2012/2018 -DZ
      BKN030 OVC050
     FM201800 11010KT P6SM VCSH SCT025 BKN050 PROB30 2018/2024 -SHRA
      BKN025 OVC050=



000
FTUS44 KBRO 192300
TAFMFE
TAF
KMFE 192320Z 2000/2024 09009KT P6SM SCT050 BKN100
     FM200600 VRB03KT P6SM SCT030 BKN050 OVC100 PROB30 2012/2018 -DZ
      BKN030 OVC050
     FM201800 10010KT P6SM VCTS SCT025 BKN050CB PROB30 2018/2024
      -TSRA BKN025CB OVC050=



000
FTUS44 KBRO 192200 AAB
TAFMFE
TAF AMD
KMFE 192207Z 1922/2018 09010KT P6SM FEW050 BKN070
     FM200000 08005KT P6SM FEW025 OVC120
     FM200600 04003KT P6SM OVC250=



000
FTUS44 KBRO 192100 AAA
TAFMFE
TAF AMD
KMFE 192108Z 1921/2018 12013KT P6SM VCSH SCT040 BKN050 OVC070
     FM200000 08005KT P6SM FEW025 OVC120
     FM200600 04003KT P6SM OVC250=



000
FTUS44 KBRO 191700
TAFBRO
TAF
KBRO 191734Z 1918/2018 09013KT P6SM FEW035
     FM200000 06004KT P6SM FEW025 BKN150
     FM200600 VRB03KT P6SM OVC250=



000
FTUS44 KBRO 191700
TAFMFE
TAF
KMFE 191734Z 1918/2018 08011KT P6SM SCT040
     FM200000 08005KT P6SM FEW025 OVC120
     FM200600 04003KT P6SM OVC250=



000
FTUS44 KBRO 191700
TAFHRL
TAF
KHRL 191734Z 1918/2018 09012G19KT P6SM FEW035
     FM200000 07005KT P6SM FEW025
     FM200600 05003KT P6SM OVC250=



000
FTUS44 KBRO 191700 AAB
TAFMFE
TAF AMD
KMFE 191716Z 1917/2012 08011KT P6SM SCT040
     FM200000 10007KT P6SM FEW025 BKN150=



000
FTUS44 KBRO 191700 AAA
TAFBRO
TAF AMD
KBRO 191715Z 1917/2012 09013KT P6SM FEW035
     FM200000 08007KT P6SM FEW025 BKN150=



000
FTUS44 KBRO 191700 AAA
TAFHRL
TAF AMD
KHRL 191715Z 1917/2012 09012G19KT P6SM FEW035
     FM200000 09007KT P6SM FEW025 BKN150=



000
FTUS44 KBRO 191200 AAA
TAFMFE
TAF AMD
KMFE 191204Z 1912/2012 08008KT P6SM BKN045 BKN060
     FM191800 11011KT P6SM VCSH SCT035 BKN150
      TEMPO 1918/1922 3SM SHRA BKN025
     FM200000 10007KT P6SM FEW025 BKN150=



000
FTUS44 KBRO 191100 RRA
TAFMFE
TAF
KMFE 191141Z 1912/2012 07006KT P6SM VCSH FEW025 SCT050 BKN200
      TEMPO 1912/1914 BKN025
     FM191800 11011KT P6SM VCSH SCT035 BKN150
      TEMPO 1918/1922 3SM SHRA BKN025
     FM200000 10007KT P6SM FEW025 BKN150=



000
FTUS44 KBRO 191100 RRA
TAFHRL
TAF
KHRL 191141Z 1912/2012 07005KT P6SM VCSH FEW030 SCT050 BKN200
     FM191800 10011KT P6SM VCSH SCT035 BKN200
     FM200000 09007KT P6SM FEW025 BKN150=



000
FTUS44 KBRO 191100 RRA
TAFBRO
TAF
KBRO 191141Z 1912/2012 06005KT P6SM VCSH FEW030 SCT050 BKN200
     FM191800 10011KT P6SM VCSH SCT035 BKN200
     FM200000 08007KT P6SM FEW025 BKN150=



000
FTUS44 KBRO 190500 RRA
TAFMFE
TAF
KMFE 190552Z 1906/2006 11010KT P6SM VCSH SCT015 BKN050
      TEMPO 1909/1912 4SM BR BKN015
     FM191500 11009KT P6SM VCSH SCT030 BKN100
     FM191800 11011KT P6SM SHRA SCT035 BKN150 PROB30 1918/1922 4SM
      RA OVC025
     FM200000 10007KT P6SM FEW025 BKN150=



000
FTUS44 KBRO 190500 RRA
TAFHRL
TAF
KHRL 190552Z 1906/2006 12006KT P6SM VCSH SCT020 BKN050
     FM191800 10011KT P6SM SCT035 BKN200
     FM200000 09007KT P6SM FEW025 BKN150=



000
FTUS44 KBRO 190500 RRA
TAFBRO
TAF
KBRO 190552Z 1906/2006 09009KT P6SM VCSH SCT020 BKN050
     FM191800 10011KT P6SM SCT035 BKN200
     FM200000 08007KT P6SM FEW025 BKN150=



000
FTUS44 KBRO 190300 AAA
TAFBRO
TAF AMD
KBRO 190315Z 1903/1924 08006KT P6SM SCT100
     FM190600 12005KT P6SM VCSH SCT050 BKN100
     FM191800 10010KT P6SM SCT030 BKN250=



000
FTUS44 KBRO 190300 AAA
TAFMFE
TAF AMD
KMFE 190314Z 1903/1924 10008KT P6SM SCT050
     FM190600 12005KT 6SM BR VCSH SCT015 BKN050
      TEMPO 1909/1912 4SM BR BKN015
     FM191500 11010KT P6SM SCT030 BKN100=



000
FTUS44 KBRO 190300 AAA
TAFHRL
TAF AMD
KHRL 190312Z 1903/1924 11007KT P6SM FEW030
     FM190600 13005KT P6SM VCSH SCT030 BKN050
     FM191800 10010KT P6SM SCT030 BKN250=



000
FTUS44 KBRO 182300 CCA
TAFMFE
TAF COR
KMFE 182335Z 1900/1924 10010KT P6SM VCTS FEW045 BKN070CB OVC100
     FM190300 11010KT P6SM BKN025
     FM190600 12005KT 6SM BR BKN020
      TEMPO 1909/1912 4SM BR BKN015
     FM191500 11010KT P6SM SCT030 BKN100=



000
FTUS44 KBRO 182300
TAFHRL
TAF
KHRL 182320Z 1900/1924 10014KT P6SM VCSH FEW018 BKN080
     FM190300 12010KT P6SM BKN025
     FM190600 13005KT P6SM SCT025 BKN050
     FM191800 10010KT P6SM SCT030 BKN250=



000
FTUS44 KBRO 182300
TAFMFE
TAF
KMFE 182320Z 1900/1924 10010KT P6SM VCSH FEW045 BKN070 OVC100
     FM190300 11010KT P6SM BKN025
     FM190600 12005KT 6SM BR BKN020
      TEMPO 1909/1912 4SM BR BKN015
     FM191500 11010KT P6SM SCT030 BKN100=



000
FTUS44 KBRO 182300
TAFBRO
TAF
KBRO 182320Z 1900/1924 11009KT P6SM SCT015
     FM190600 12005KT P6SM SCT020 BKN050
     FM191800 10010KT P6SM SCT030 BKN250=



000
FTUS44 KBRO 182100 AAA
TAFBRO
TAF AMD
KBRO 182133Z 1822/1918 13013KT P6SM VCSH SCT023 SCT045 BKN060
     FM190100 05005KT P6SM SCT020 BKN150
     FM190800 05005KT P6SM BKN020
     FM191400 07010KT P6SM BKN030=



000
FTUS44 KBRO 182100 AAB
TAFHRL
TAF AMD
KHRL 182133Z 1822/1918 09011KT P6SM VCSH FEW030
     FM190100 10005KT P6SM SCT020 BKN150
     FM190800 05005KT P6SM BKN020
     FM191400 07010KT P6SM BKN030=



000
FTUS44 KBRO 182000 AAB
TAFMFE
TAF AMD
KMFE 182046Z 1821/1918 09011KT P6SM VCSH FEW045
      TEMPO 1821/1824 SHRA SCT030 BKN045
     FM190100 10007KT P6SM SCT020 BKN150
     FM190800 05005KT P6SM BKN020
      TEMPO 1910/1914 2SM BR BKN010
     FM191400 09010KT P6SM BKN030=



000
FTUS44 KBRO 182000 AAA
TAFHRL
TAF AMD
KHRL 182036Z 1821/1918 10015G20KT P6SM VCSH SCT018 BKN023
      TEMPO 1821/1822 SHRA BKN018
     FM190100 10005KT P6SM SCT020 BKN150
     FM190800 05005KT P6SM BKN020
     FM191400 07010KT P6SM BKN030=



000
FTUS44 KBRO 182000 AAA
TAFMFE
TAF AMD
KMFE 182036Z 1821/1918 09011KT P6SM VCSH FEW045
     FM190100 10007KT P6SM SCT020 BKN150
     FM190800 05005KT P6SM BKN020
      TEMPO 1910/1914 2SM BR BKN010
     FM191400 09010KT P6SM BKN030=



000
FTUS44 KBRO 182000 AAA
TAFBRO
TAF AMD
KBRO 182030Z 1821/1918 12010KT P6SM VCSH FEW025 BKN070 OVC100
      TEMPO 1821/1824 -SHRA BKN025
     FM190100 05005KT P6SM SCT020 BKN150
     FM190800 05005KT P6SM BKN020
     FM191400 07010KT P6SM BKN030=



    US Dept of Commerce
    National Oceanic and Atmospheric Administration
    National Weather Service
    1325 East West Highway
    Silver Spring, MD 20910
    Page Author: NWS Internet Services Team
Disclaimer
Information Quality
Credits
Glossary
Privacy Policy
Freedom of Information Act (FOIA)
About Us
Career Opportunities